createdAt,value
2019-05-20T00:02:24.314Z,13.06
2019-05-20T00:04:45.128Z,12.78
2019-05-20T00:07:13.751Z,12.69
2019-05-20T00:09:42.300Z,12.33
2019-05-20T00:12:10.946Z,12.17
2019-05-20T00:14:39.514Z,12.29
2019-05-20T00:17:08.125Z,12.36
2019-05-20T00:19:36.608Z,12.79
2019-05-20T00:22:05.296Z,13.04
2019-05-20T00:24:33.865Z,13.04
2019-05-20T00:27:02.450Z,12.73
2019-05-20T00:29:31.023Z,12.87
2019-05-20T00:31:59.592Z,12.94
2019-05-20T00:34:35.364Z,12.81
2019-05-20T00:36:58.461Z,12.83
2019-05-20T00:39:27.014Z,12.64
2019-05-20T00:41:55.560Z,12.54
2019-05-20T00:44:24.180Z,12.72
2019-05-20T00:46:52.814Z,12.78
2019-05-20T00:49:21.431Z,12.79
2019-05-20T00:51:50.047Z,12.43
2019-05-20T00:54:18.738Z,12.19
2019-05-20T00:56:49.309Z,12.38
2019-05-20T00:59:17.849Z,12.58
2019-05-20T01:01:46.471Z,12.67
2019-05-20T01:04:15.108Z,12.63
2019-05-20T01:06:43.665Z,12.87
2019-05-20T01:09:12.298Z,12.88
2019-05-20T01:11:40.905Z,12.72
2019-05-20T01:14:09.549Z,12.66
2019-05-20T01:16:38.151Z,12.54
2019-05-20T01:19:06.779Z,12.55
2019-05-20T01:21:35.273Z,12.37
2019-05-20T01:24:03.869Z,12.37
2019-05-20T01:26:32.458Z,12.41
2019-05-20T01:29:01.030Z,12.54
2019-05-20T01:31:29.623Z,12.54
2019-05-20T01:33:58.229Z,12.60
2019-05-20T01:36:26.851Z,12.71
2019-05-20T01:38:55.379Z,12.88
2019-05-20T01:41:24.975Z,12.97
2019-05-20T01:43:53.577Z,13.01
2019-05-20T01:46:22.185Z,12.94
2019-05-20T01:48:50.783Z,13.01
2019-05-20T01:51:19.417Z,13.15
2019-05-20T01:53:47.938Z,13.18
2019-05-20T01:56:16.390Z,12.90
2019-05-20T01:58:45.027Z,12.87
2019-05-20T02:01:13.665Z,12.83
2019-05-20T02:03:42.191Z,12.88
2019-05-20T02:06:10.696Z,12.88
2019-05-20T02:08:39.284Z,13.02
2019-05-20T02:11:07.899Z,13.15
2019-05-20T02:13:52.970Z,13.36
2019-05-20T02:16:23.427Z,13.40
2019-05-20T02:18:52.065Z,13.46
2019-05-20T02:21:20.802Z,13.63
2019-05-20T02:23:49.323Z,13.75
2019-05-20T02:26:17.959Z,13.68
2019-05-20T02:28:46.555Z,13.62
2019-05-20T02:31:15.159Z,13.74
2019-05-20T02:33:51.808Z,13.72
2019-05-20T02:36:14.078Z,13.87
2019-05-20T02:38:42.720Z,13.88
2019-05-20T02:41:11.330Z,13.75
2019-05-20T02:43:39.985Z,13.62
2019-05-20T02:46:08.634Z,13.81
2019-05-20T02:48:37.112Z,14.00
2019-05-20T02:51:05.757Z,14.29
2019-05-20T02:53:34.424Z,14.43
2019-05-20T02:56:02.928Z,14.53
2019-05-20T02:58:31.599Z,14.43
2019-05-20T03:01:00.217Z,14.47
2019-05-20T03:03:28.840Z,14.46
2019-05-20T03:05:57.459Z,14.40
2019-05-20T03:08:26.054Z,14.27
2019-05-20T03:10:54.618Z,14.33
2019-05-20T03:13:23.241Z,14.43
2019-05-20T03:15:51.759Z,14.63
2019-05-20T03:18:20.442Z,14.68
2019-05-20T03:20:48.969Z,14.63
2019-05-20T03:23:17.619Z,14.64
2019-05-20T03:25:46.400Z,14.77
2019-05-20T03:28:15.199Z,14.80
2019-05-20T03:30:44.308Z,14.82
2019-05-20T03:33:12.808Z,14.70
2019-05-20T03:35:41.400Z,14.49
2019-05-20T03:38:09.973Z,14.32
2019-05-20T03:40:38.507Z,14.22
2019-05-20T03:43:07.100Z,14.17
2019-05-20T03:45:35.756Z,14.23
2019-05-20T03:48:04.356Z,14.29
2019-05-20T03:50:33.110Z,14.41
2019-05-20T03:53:01.771Z,14.51
2019-05-20T03:55:30.375Z,14.55
2019-05-20T03:57:59.028Z,14.74
2019-05-20T04:00:42.182Z,14.74
2019-05-20T04:03:10.768Z,14.82
2019-05-20T04:05:40.152Z,14.64
2019-05-20T04:08:08.932Z,14.63
2019-05-20T04:10:37.527Z,14.52
2019-05-20T04:13:06.112Z,14.30
2019-05-20T04:15:34.772Z,14.39
2019-05-20T04:18:03.394Z,14.41
2019-05-20T04:20:32.005Z,14.45
2019-05-20T04:23:00.570Z,14.43
2019-05-20T04:25:29.152Z,14.51
2019-05-20T04:27:57.853Z,14.64
2019-05-20T04:30:26.785Z,14.63
2019-05-20T04:32:55.439Z,14.63
2019-05-20T04:35:23.998Z,14.70
2019-05-20T04:37:52.571Z,14.71
2019-05-20T04:40:21.196Z,14.51
2019-05-20T04:42:49.806Z,14.41
2019-05-20T04:45:18.424Z,14.50
2019-05-20T04:47:46.946Z,14.30
2019-05-20T04:50:15.686Z,14.33
2019-05-20T04:52:44.218Z,14.38
2019-05-20T04:55:12.802Z,14.53
2019-05-20T04:57:41.363Z,14.48
2019-05-20T05:00:10.857Z,14.48
2019-05-20T05:02:43.183Z,14.45
2019-05-20T05:05:10.089Z,14.50
2019-05-20T05:07:38.706Z,14.65
2019-05-20T05:10:10.674Z,14.38
2019-05-20T05:12:39.244Z,14.37
2019-05-20T05:15:09.183Z,14.40
2019-05-20T05:17:37.888Z,14.50
2019-05-20T05:20:07.885Z,14.68
2019-05-20T05:22:36.473Z,14.69
2019-05-20T05:25:07.933Z,14.79
2019-05-20T05:27:36.545Z,14.81
2019-05-20T05:30:07.724Z,14.75
2019-05-20T05:32:42.751Z,14.67
2019-05-20T05:35:14.319Z,14.78
2019-05-20T05:37:43.069Z,14.80
2019-05-20T05:40:12.382Z,14.97
2019-05-20T05:42:41.017Z,15.05
2019-05-20T05:45:10.469Z,15.08
2019-05-20T05:47:39.053Z,15.07
2019-05-20T05:50:08.092Z,15.14
2019-05-20T05:52:36.720Z,15.14
2019-05-20T05:55:06.696Z,15.22
2019-05-20T05:57:35.295Z,15.13
2019-05-20T06:00:06.413Z,15.12
2019-05-20T06:02:34.936Z,14.86
2019-05-20T06:05:03.858Z,14.85
2019-05-20T06:07:32.441Z,14.76
2019-05-20T06:10:01.028Z,14.72
2019-05-20T06:12:29.585Z,14.55
2019-05-20T06:14:58.025Z,14.51
2019-05-20T06:17:26.645Z,14.47
2019-05-20T06:19:55.288Z,14.52
2019-05-20T06:22:23.778Z,14.57
2019-05-20T06:24:52.431Z,14.64
2019-05-20T06:27:20.928Z,14.55
2019-05-20T06:29:49.580Z,14.48
2019-05-20T06:32:18.089Z,14.46
2019-05-20T06:34:46.693Z,14.53
2019-05-20T06:37:19.866Z,14.57
2019-05-20T06:39:51.196Z,14.59
2019-05-20T06:42:18.859Z,14.56
2019-05-20T06:44:53.032Z,14.51
2019-05-20T06:47:17.858Z,14.45
2019-05-20T06:49:46.398Z,14.49
2019-05-20T06:52:15.043Z,14.51
2019-05-20T06:54:43.526Z,14.59
2019-05-20T06:57:12.237Z,14.72
2019-05-20T06:59:41.488Z,14.70
2019-05-20T07:02:10.071Z,14.68
2019-05-20T07:04:38.622Z,14.59
2019-05-20T07:07:20.022Z,14.66
2019-05-20T07:09:37.542Z,14.69
2019-05-20T07:12:06.248Z,14.79
2019-05-20T07:14:34.831Z,14.78
2019-05-20T07:17:03.427Z,14.91
2019-05-20T07:19:32.026Z,15.05
2019-05-20T07:22:00.706Z,14.96
2019-05-20T07:24:29.286Z,15.07
2019-05-20T07:26:57.931Z,14.99
2019-05-20T07:29:26.492Z,14.90
2019-05-20T07:31:54.983Z,14.83
2019-05-20T07:34:23.426Z,14.69
2019-05-20T07:37:02.819Z,14.59
2019-05-20T07:39:22.165Z,14.79
2019-05-20T07:41:50.786Z,14.86
2019-05-20T07:44:19.365Z,14.73
2019-05-20T07:46:48.175Z,14.67
2019-05-20T07:49:16.814Z,14.66
2019-05-20T07:51:46.911Z,14.75
2019-05-20T07:54:16.008Z,14.59
2019-05-20T07:56:47.362Z,14.58
2019-05-20T07:59:17.791Z,14.52
2019-05-20T08:01:46.350Z,14.52
2019-05-20T08:04:15.195Z,14.61
2019-05-20T08:06:43.795Z,14.75
2019-05-20T08:09:12.291Z,14.79
2019-05-20T08:11:40.873Z,15.02
2019-05-20T08:14:09.502Z,15.12
2019-05-20T08:16:38.100Z,15.10
2019-05-20T08:19:06.717Z,14.90
2019-05-20T08:21:35.240Z,15.05
2019-05-20T08:24:04.015Z,15.25
2019-05-20T08:26:32.678Z,15.22
2019-05-20T08:29:01.294Z,15.06
2019-05-20T08:31:30.012Z,15.13
2019-05-20T08:33:58.650Z,15.13
2019-05-20T08:36:27.268Z,14.95
2019-05-20T08:38:55.829Z,14.97
2019-05-20T08:41:24.489Z,15.07
2019-05-20T08:43:53.106Z,15.10
2019-05-20T08:46:21.619Z,15.12
2019-05-20T08:48:50.378Z,15.12
2019-05-20T08:51:19.075Z,15.32
2019-05-20T08:53:47.815Z,15.41
2019-05-20T08:56:16.551Z,15.46
2019-05-20T08:58:45.073Z,15.55
2019-05-20T09:01:13.680Z,15.68
2019-05-20T09:03:42.305Z,15.59
2019-05-20T09:06:10.916Z,15.61
2019-05-20T09:08:39.480Z,15.54
2019-05-20T09:11:08.116Z,15.55
2019-05-20T09:13:36.707Z,15.63
2019-05-20T09:16:05.578Z,15.71
2019-05-20T09:18:34.150Z,15.80
2019-05-20T09:21:02.775Z,15.86
2019-05-20T09:23:31.365Z,15.91
2019-05-20T09:26:00.431Z,15.91
2019-05-20T09:28:29.164Z,15.91
2019-05-20T09:30:57.871Z,15.93
2019-05-20T09:33:26.488Z,15.81
2019-05-20T09:35:55.906Z,15.95
2019-05-20T09:38:24.447Z,15.91
2019-05-20T09:40:53.070Z,15.69
2019-05-20T09:43:21.610Z,15.59
2019-05-20T09:46:05.590Z,15.59
2019-05-20T09:48:24.686Z,15.79
2019-05-20T09:50:51.033Z,15.80
2019-05-20T09:53:19.495Z,15.99
2019-05-20T09:55:48.134Z,16.16
2019-05-20T09:58:16.784Z,16.23
2019-05-20T10:00:46.469Z,16.34
2019-05-20T10:03:15.060Z,16.29
2019-05-20T10:05:43.663Z,16.19
2019-05-20T10:08:12.371Z,16.15
2019-05-20T10:10:40.977Z,16.01
2019-05-20T10:13:09.719Z,16.01
2019-05-20T10:15:38.412Z,16.12
2019-05-20T10:18:07.293Z,16.22
2019-05-20T10:20:35.893Z,16.46
2019-05-20T10:23:04.447Z,16.60
2019-05-20T10:25:33.153Z,16.68
2019-05-20T10:28:01.761Z,16.51
2019-05-20T10:30:31.222Z,16.37
2019-05-20T10:32:59.806Z,16.37
2019-05-20T10:35:28.477Z,16.26
2019-05-20T10:37:57.090Z,16.15
2019-05-20T10:40:25.726Z,16.13
2019-05-20T10:42:54.357Z,16.10
2019-05-20T10:45:23.002Z,16.00
2019-05-20T10:47:51.576Z,16.14
2019-05-20T10:50:20.281Z,16.33
2019-05-20T10:52:48.817Z,16.04
2019-05-20T10:55:17.548Z,15.98
2019-05-20T10:57:46.061Z,15.86
2019-05-20T11:00:14.973Z,16.07
2019-05-20T11:02:43.526Z,16.04
2019-05-20T11:05:12.304Z,15.90
2019-05-20T11:07:40.963Z,15.93
2019-05-20T11:10:09.958Z,16.06
2019-05-20T11:12:38.496Z,16.15
2019-05-20T11:15:07.718Z,16.05
2019-05-20T11:17:36.313Z,16.05
2019-05-20T11:20:07.136Z,16.04
2019-05-20T11:22:35.761Z,16.10
2019-05-20T11:25:06.151Z,16.06
2019-05-20T11:27:34.716Z,16.24
2019-05-20T11:30:04.341Z,16.22
2019-05-20T11:32:32.959Z,16.13
2019-05-20T11:35:02.345Z,16.06
2019-05-20T11:37:32.037Z,16.17
2019-05-20T11:40:00.692Z,16.34
2019-05-20T11:42:29.319Z,16.40
2019-05-20T11:44:57.962Z,16.33
2019-05-20T11:47:26.672Z,16.37
2019-05-20T11:49:55.265Z,16.51
2019-05-20T11:52:23.892Z,16.61
2019-05-20T11:54:52.499Z,16.54
2019-05-20T11:57:20.986Z,16.48
2019-05-20T11:59:49.608Z,16.48
2019-05-20T12:02:18.179Z,16.54
2019-05-20T12:04:46.786Z,16.40
2019-05-20T12:07:15.334Z,16.34
2019-05-20T12:09:49.693Z,16.36
2019-05-20T12:12:14.142Z,16.52
2019-05-20T12:14:42.612Z,16.57
2019-05-20T12:17:11.166Z,16.83
2019-05-20T12:19:39.687Z,17.08
2019-05-20T12:22:08.319Z,17.19
2019-05-20T12:24:36.902Z,17.29
2019-05-20T12:27:05.528Z,17.29
2019-05-20T12:29:34.114Z,17.27
2019-05-20T12:32:03.658Z,17.33
2019-05-20T12:34:32.413Z,17.22
2019-05-20T12:37:00.923Z,17.13
2019-05-20T12:39:29.552Z,17.08
2019-05-20T12:41:58.146Z,17.17
2019-05-20T12:44:26.751Z,17.12
2019-05-20T12:46:55.465Z,17.15
2019-05-20T12:49:24.180Z,17.00
2019-05-20T12:51:52.977Z,16.89
2019-05-20T12:54:21.419Z,16.78
2019-05-20T12:56:49.956Z,16.72
2019-05-20T12:59:18.565Z,16.66
2019-05-20T13:01:47.124Z,16.73
2019-05-20T13:04:15.855Z,16.75
2019-05-20T13:06:44.547Z,16.67
2019-05-20T13:09:13.153Z,16.67
2019-05-20T13:11:41.716Z,16.82
2019-05-20T13:14:10.307Z,16.84
2019-05-20T13:16:38.831Z,16.58
2019-05-20T13:19:07.520Z,16.39
2019-05-20T13:21:36.125Z,16.60
2019-05-20T13:24:05.038Z,16.59
2019-05-20T13:26:33.557Z,16.75
2019-05-20T13:29:02.221Z,16.84
2019-05-20T13:31:30.814Z,16.87
2019-05-20T13:33:59.385Z,16.88
2019-05-20T13:36:27.943Z,16.91
2019-05-20T13:38:56.427Z,16.99
2019-05-20T13:41:25.057Z,17.13
2019-05-20T13:43:53.572Z,17.22
2019-05-20T13:46:22.228Z,17.46
2019-05-20T13:48:50.933Z,17.59
2019-05-20T13:51:19.588Z,17.75
2019-05-20T13:53:48.135Z,17.59
2019-05-20T13:56:16.695Z,17.64
2019-05-20T13:58:45.446Z,17.46
2019-05-20T14:01:14.116Z,17.27
2019-05-20T14:03:42.749Z,17.38
2019-05-20T14:06:11.477Z,17.28
2019-05-20T14:08:40.042Z,17.20
2019-05-20T14:11:08.561Z,17.18
2019-05-20T14:13:37.121Z,17.29
2019-05-20T14:16:05.766Z,17.38
2019-05-20T14:18:34.293Z,17.42
2019-05-20T14:21:02.926Z,17.45
2019-05-20T14:23:31.507Z,17.40
2019-05-20T14:25:59.988Z,17.37
2019-05-20T14:28:28.652Z,17.30
2019-05-20T14:30:57.589Z,17.22
2019-05-20T14:33:26.056Z,17.10
2019-05-20T14:35:54.535Z,17.07
2019-05-20T14:38:23.162Z,17.19
2019-05-20T14:40:51.835Z,17.29
2019-05-20T14:43:20.401Z,17.31
2019-05-20T14:45:49.094Z,17.30
2019-05-20T14:48:17.643Z,17.23
2019-05-20T14:50:46.251Z,17.34
2019-05-20T14:53:14.738Z,17.44
2019-05-20T14:55:43.349Z,17.59
2019-05-20T14:58:12.049Z,17.44
2019-05-20T15:00:40.680Z,17.45
2019-05-20T15:03:09.273Z,17.32
2019-05-20T15:05:37.942Z,17.25
2019-05-20T15:08:06.620Z,17.02
2019-05-20T15:10:35.176Z,17.02
2019-05-20T15:13:04.523Z,17.02
2019-05-20T15:15:33.348Z,17.07
2019-05-20T15:18:02.020Z,16.85
2019-05-20T15:20:30.669Z,16.74
2019-05-20T15:22:59.239Z,16.83
2019-05-20T15:25:27.787Z,16.80
2019-05-20T15:27:56.401Z,16.83
2019-05-20T15:30:25.016Z,16.96
2019-05-20T15:32:54.960Z,17.23
2019-05-20T15:35:23.657Z,17.36
2019-05-20T15:37:52.231Z,17.42
2019-05-20T15:40:24.119Z,17.73
2019-05-20T15:42:51.250Z,17.73
2019-05-20T15:45:20.009Z,17.69
2019-05-20T15:47:48.604Z,17.66
2019-05-20T15:50:17.524Z,17.48
2019-05-20T15:52:46.117Z,17.34
2019-05-20T15:55:14.738Z,17.45
2019-05-20T15:57:43.372Z,17.58
2019-05-20T16:00:12.259Z,17.59
2019-05-20T16:02:40.930Z,17.59
2019-05-20T16:05:09.780Z,17.65
2019-05-20T16:07:38.264Z,17.64
2019-05-20T16:10:07.147Z,17.69
2019-05-20T16:12:35.834Z,17.41
2019-05-20T16:15:07.049Z,17.22
2019-05-20T16:17:35.684Z,17.11
2019-05-20T16:20:07.197Z,16.88
2019-05-20T16:22:36.076Z,16.93
2019-05-20T16:25:07.224Z,16.93
2019-05-20T16:27:35.794Z,16.90
2019-05-20T16:30:07.693Z,16.90
2019-05-20T16:32:36.417Z,16.82
2019-05-20T16:35:07.111Z,16.77
2019-05-20T16:37:35.645Z,16.83
2019-05-20T16:40:09.211Z,16.89
2019-05-20T16:42:37.899Z,16.74
2019-05-20T16:45:11.581Z,16.76
2019-05-20T16:47:38.900Z,16.84
2019-05-20T16:50:09.095Z,16.79
2019-05-20T16:52:38.365Z,16.62
2019-05-20T16:55:07.896Z,16.53
2019-05-20T16:57:36.490Z,16.60
2019-05-20T17:00:16.134Z,16.53
2019-05-20T17:02:37.349Z,16.65
2019-05-20T17:05:06.120Z,16.55
2019-05-20T17:07:34.693Z,16.49
2019-05-20T17:10:04.445Z,16.57
2019-05-20T17:12:33.028Z,16.47
2019-05-20T17:15:01.659Z,16.40
2019-05-20T17:17:30.184Z,16.45
2019-05-20T17:19:58.763Z,16.45
2019-05-20T17:22:27.312Z,16.56
2019-05-20T17:24:55.934Z,16.40
2019-05-20T17:27:24.566Z,16.28
2019-05-20T17:29:53.287Z,16.29
2019-05-20T17:32:21.805Z,16.32
2019-05-20T17:34:50.470Z,16.23
2019-05-20T17:37:19.095Z,16.22
2019-05-20T17:39:47.704Z,16.15
2019-05-20T17:42:16.353Z,16.16
2019-05-20T17:44:44.936Z,16.18
2019-05-20T17:47:13.554Z,16.17
2019-05-20T17:49:42.159Z,16.12
2019-05-20T17:52:10.770Z,16.23
2019-05-20T17:54:39.479Z,16.28
2019-05-20T17:57:08.094Z,16.17
2019-05-20T17:59:36.727Z,16.17
2019-05-20T18:02:06.964Z,16.12
2019-05-20T18:04:36.711Z,16.13
2019-05-20T18:07:05.350Z,16.15
2019-05-20T18:09:35.632Z,16.21
2019-05-20T18:12:04.208Z,16.20
2019-05-20T18:14:32.767Z,16.15
2019-05-20T18:17:01.482Z,16.23
2019-05-20T18:19:29.995Z,16.28
2019-05-20T18:21:58.638Z,16.13
2019-05-20T18:24:27.263Z,16.18
2019-05-20T18:26:55.960Z,16.30
2019-05-20T18:29:24.665Z,16.19
2019-05-20T18:31:53.325Z,16.08
2019-05-20T18:34:21.971Z,16.20
2019-05-20T18:36:50.569Z,16.28
2019-05-20T18:39:19.194Z,16.15
2019-05-20T18:41:47.801Z,16.04
2019-05-20T18:44:16.316Z,16.10
2019-05-20T18:46:44.889Z,16.07
2019-05-20T18:49:13.379Z,16.08
2019-05-20T18:51:42.085Z,16.11
2019-05-20T18:54:11.276Z,16.09
2019-05-20T18:56:39.882Z,16.20
2019-05-20T18:59:08.383Z,16.12
2019-05-20T19:01:47.546Z,16.10
2019-05-20T19:04:07.661Z,16.13
2019-05-20T19:06:36.222Z,16.13
2019-05-20T19:09:06.998Z,15.90
2019-05-20T19:11:35.598Z,16.00
2019-05-20T19:14:08.151Z,15.93
2019-05-20T19:16:34.590Z,15.89
2019-05-20T19:19:03.218Z,15.93
2019-05-20T19:21:31.835Z,15.81
2019-05-20T19:24:00.391Z,15.67
2019-05-20T19:26:29.021Z,15.48
2019-05-20T19:28:57.639Z,15.42
2019-05-20T19:31:26.236Z,15.46
2019-05-20T19:33:54.868Z,15.45
2019-05-20T19:36:23.432Z,15.43
2019-05-20T19:38:52.100Z,15.50
2019-05-20T19:41:20.717Z,15.53
2019-05-20T19:43:49.275Z,15.61
2019-05-20T19:46:17.842Z,15.57
2019-05-20T19:48:46.491Z,15.56
2019-05-20T19:51:14.971Z,15.58
2019-05-20T19:53:43.594Z,15.44
2019-05-20T19:56:12.194Z,15.37
2019-05-20T19:58:40.822Z,15.45
2019-05-20T20:01:09.379Z,15.45
2019-05-20T20:03:38.053Z,15.56
2019-05-20T20:06:06.644Z,15.58
2019-05-20T20:08:35.149Z,15.63
2019-05-20T20:11:03.743Z,15.62
2019-05-20T20:13:34.528Z,15.64
2019-05-20T20:16:02.809Z,15.66
2019-05-20T20:18:31.364Z,15.63
2019-05-20T20:20:59.926Z,15.52
2019-05-20T20:23:28.491Z,15.47
2019-05-20T20:25:57.329Z,15.63
2019-05-20T20:28:25.919Z,15.64
2019-05-20T20:30:54.553Z,15.77
2019-05-20T20:33:23.147Z,15.83
2019-05-20T20:35:51.769Z,15.67
2019-05-20T20:38:20.308Z,15.52
2019-05-20T20:40:48.875Z,15.51
2019-05-20T20:43:17.412Z,15.48
2019-05-20T20:45:46.023Z,15.61
2019-05-20T20:48:14.541Z,15.74
2019-05-20T20:50:43.373Z,15.80
2019-05-20T20:53:11.838Z,15.94
2019-05-20T20:55:40.403Z,15.90
2019-05-20T20:58:09.034Z,15.86
2019-05-20T21:00:38.625Z,15.60
2019-05-20T21:03:07.237Z,15.60
2019-05-20T21:05:36.030Z,15.48
2019-05-20T21:08:04.660Z,15.52
2019-05-20T21:10:33.257Z,15.64
2019-05-20T21:13:01.824Z,15.74
2019-05-20T21:15:30.448Z,15.75
2019-05-20T21:17:59.049Z,15.69
2019-05-20T21:20:27.639Z,15.62
2019-05-20T21:22:56.257Z,15.50
2019-05-20T21:25:24.755Z,15.21
2019-05-20T21:27:53.325Z,15.16
2019-05-20T21:30:21.983Z,14.97
2019-05-20T21:32:50.588Z,14.91
2019-05-20T21:35:19.227Z,15.13
2019-05-20T21:37:47.843Z,15.36
2019-05-20T21:40:16.428Z,15.53
2019-05-20T21:42:44.983Z,15.54
2019-05-20T21:45:13.555Z,15.58
2019-05-20T21:47:44.722Z,15.63
2019-05-20T21:50:13.085Z,15.51
2019-05-20T21:52:41.558Z,15.38
2019-05-20T21:55:10.586Z,15.25
2019-05-20T21:57:39.490Z,15.16
2019-05-20T22:00:11.113Z,15.20
2019-05-20T22:02:39.757Z,15.06
2019-05-20T22:05:08.580Z,14.97
2019-05-20T22:07:37.229Z,14.94
2019-05-20T22:10:06.934Z,15.05
2019-05-20T22:12:36.424Z,15.10
2019-05-20T22:15:06.547Z,15.01
2019-05-20T22:17:35.036Z,15.07
2019-05-20T22:20:04.782Z,15.08
2019-05-20T22:22:47.249Z,15.09
2019-05-20T22:25:15.857Z,15.10
2019-05-20T22:27:44.313Z,15.01
2019-05-20T22:30:13.314Z,15.08
2019-05-20T22:32:41.898Z,15.17
2019-05-20T22:35:10.510Z,15.23
2019-05-20T22:37:39.837Z,15.13
2019-05-20T22:40:08.486Z,15.01
2019-05-20T22:42:37.158Z,15.13
2019-05-20T22:45:06.239Z,15.17
2019-05-20T22:47:34.878Z,15.10
2019-05-20T22:50:03.992Z,15.04
2019-05-20T22:52:32.538Z,14.93
2019-05-20T22:55:01.115Z,14.93
2019-05-20T22:57:30.223Z,15.05
2019-05-20T22:59:58.758Z,15.08
2019-05-20T23:02:27.352Z,14.97
2019-05-20T23:04:55.967Z,15.06
2019-05-20T23:07:24.597Z,15.14
2019-05-20T23:09:53.186Z,15.06
2019-05-20T23:12:21.802Z,14.78
2019-05-20T23:14:50.413Z,14.64
2019-05-20T23:17:28.365Z,14.43
2019-05-20T23:19:56.920Z,14.63
2019-05-20T23:22:25.476Z,14.67
2019-05-20T23:24:53.979Z,14.69
2019-05-20T23:27:22.508Z,14.69
2019-05-20T23:29:51.644Z,14.53
2019-05-20T23:32:20.243Z,14.40
2019-05-20T23:34:48.733Z,14.48
2019-05-20T23:37:17.419Z,14.37
2019-05-20T23:39:45.983Z,14.35
2019-05-20T23:42:14.673Z,14.21
2019-05-20T23:44:43.235Z,14.32
2019-05-20T23:47:11.749Z,14.26
2019-05-20T23:49:40.988Z,14.23
2019-05-20T23:52:09.599Z,14.20
2019-05-20T23:54:38.136Z,14.00
2019-05-20T23:57:06.753Z,14.02
2019-05-20T23:59:35.409Z,14.02
